Bango, Nevada Weather observations

Data are for 10 minute period ending at time listed.
 Day   Time    Ave.   Ave.  Ave.  Vector   Max.   Stn.    Total    Solar   Ave.  
  of    of     Air    Rel.  Wind   Wind    Wind   Baro.  Precip.   Rad.    Soil  
Year   Day     Temp.  Hum.  Speed  Dir.    Gust   Pres.                    Temp. 
2017   (PST)    F      %     mph   deg.    mph     mb.     in.     W/m2     F    
--------------------------------------------------------------------------------- 
 208   10:30   84.2    19    6.3    87     10.5   878.3    0.00     924    29.4  
 208   10:40   84.1    20    5.9    33      9.6   878.3    0.00     937    29.5  
 208   10:50   85.0    20    6.2   122      9.6   878.2    0.00     954    29.5  
 208   11:00   85.3    22    7.5   164     16.7   878.1    0.00     966    29.5  
 208   11:10   84.8    22    8.7   175     14.1   878.0    0.00     975    29.6  
 208   11:20   85.2    22    9.8   192     15.8   878.0    0.00     983    29.7  
 208   11:30   85.9    21    8.7   212     14.1   877.9    0.00     992    29.8  
 208   11:40   86.4    20   10.8   201     15.8   877.8    0.00     996    29.8  
 208   11:50   85.9    21   10.6   195     16.7   877.8    0.00    1003    29.9  
 208   12:00   86.5    20   12.6   208     20.3   877.7    0.00    1002    30.0  
 208   12:10   86.1    19   10.8   194     19.4   877.7    0.00     978    30.1  
 208   12:20   87.2    16    8.3   194     14.9   877.5    0.00    1018    30.2  
 208   12:30   88.1    15    8.7   184     15.8   877.4    0.00    1014    30.4  
 208   12:40   88.1    13    7.5   179     14.1   877.2    0.00    1000    30.5  
 208   12:50   88.8    14    9.8   168     20.3   877.0    0.00     990    30.6  
 208   13:00   88.4    14    8.6   195     14.9   877.0    0.00     977    30.8  
 208   13:10   88.6    14    6.5   218     13.2   876.9    0.00     970    30.9  
 208   13:20   88.9    14    8.2   179     15.8   876.8    0.00     958    31.1  
 208   13:30   89.3    14    5.7   192     10.5   876.7    0.00     947    31.2  
 208   13:40   89.4    15    7.4   206     13.2   876.5    0.00     931    31.4  
 208   13:50   90.6    14    5.9   225     13.2   876.4    0.00     912    31.5  
 208   14:00   90.2    15    8.0   151     14.9   876.3    0.00     894    31.6  
 208   14:10   89.9    15    5.1    54      9.6   876.2    0.00     877    31.8  
 208   14:20   90.6    14    7.3    54     11.4   876.1    0.00     856    32.0  
 208   14:30   90.5    14    6.2   317     14.1   876.1    0.00     835    32.1  
 208   14:40   90.6    14    5.0   350     11.4   876.0    0.00     815    32.2  
 208   14:50   91.1    14    7.6   359     14.1   875.8    0.00     789    32.4  
 208   15:00   91.2    14    7.7   323     14.9   875.7    0.00     765    32.6  
 208   15:10   90.6    14    5.5   339     10.5   875.7    0.00     734    32.7  
 208   15:20   91.2    14    5.6    69      8.7   875.5    0.00     710    32.9  
 208   15:30   91.7    13    6.8    17     14.9   875.4    0.00     684    33.0  
 208   15:40   92.4    12    9.2   348     22.1   875.2    0.00     658    33.2  
 208   15:50   92.0    12   10.3   328     18.5   875.1    0.00     625    33.3  
 208   16:00   91.4    12    9.2   333     17.6   875.1    0.00     597    33.5  
 208   16:10   91.5    12    7.8   342     16.7   874.9    0.00     562    33.6  
 208   16:20   91.6    12    8.0   341     15.8   874.9    0.00     528    33.8  
 208   16:30   91.6    12    7.1    10     13.2   874.8    0.00     498    33.9  
 208   16:40   91.5    12   11.0   348     15.8   874.7    0.00     465    34.0  
 208   16:50   91.3    12    7.9   337     14.1   874.7    0.00     432    34.2  
 208   17:00   91.7    12   11.2   350     16.7   874.7    0.00     396    34.3  
 208   17:10   91.5    12    9.0   346     15.8   874.7    0.00     361    34.4  
 208   17:20   91.3    12    9.7   311     14.9   874.6    0.00     325    34.5  
 208   17:30   91.2    12    9.1   320     14.9   874.6    0.00     291    34.6  
 208   17:40   90.9    12    7.6   345     13.2   874.6    0.00     258    34.7  
 208   17:50   90.6    12    9.2   345     17.6   874.6    0.00     224    34.8  
 208   18:00   90.4    12   11.2   327     18.5   874.6    0.00     191    34.9  
 208   18:10   90.0    12   13.7   315     17.6   874.6    0.00     160    35.0  
 208   18:20   89.7    12   10.3   318     15.8   874.6    0.00     131    35.0  
 208   18:30   89.4    12   10.1   318     14.1   874.6    0.00      80    35.1  
 208   18:40   87.9    13   11.9   318     16.7   874.6    0.00      22    35.2  
 208   18:50   87.3    13   11.2   312     14.9   874.6    0.00      39    35.2  
 208   19:00   86.3    13   11.7   306     14.9   874.6    0.00      14    35.3  
 208   19:10   85.6    14   11.7   302     15.8   874.7    0.00       7    35.3  
 208   19:20   84.8    14   11.3   300     14.1   874.7    0.00       4    35.4  
 208   19:30   83.9    15   10.8   301     14.1   874.7    0.00       1    35.4  
 208   19:40   83.5    15   10.1   300     13.2   874.8    0.00       0    35.5  
 208   19:50   82.6    16    9.4   302     11.4   874.9    0.00       0    35.5  
 208   20:00   82.6    16    9.7   290     12.3   874.9    0.00       0    35.5  
 208   20:10   82.6    15    8.8   290     10.5   875.1    0.00       0    35.5  
 208   20:20   81.9    16    7.4   292      9.6   875.3    0.00       0    35.5  
 208   20:30   80.8    16    8.0   292      9.6   875.3    0.00       0    35.5  
 208   20:40   80.3    16    8.3   300      9.6   875.3    0.00       0    35.5  
 208   20:50   80.0    17    8.5   308     10.5   875.3    0.00       0    35.5  
 208   21:00   80.0    17    9.1   308     10.5   875.3    0.00       0    35.4  
 208   21:10   79.7    17    7.9   315     11.4   875.4    0.00       0    35.4  
 208   21:20   78.6    18    6.6   328      8.7   875.4    0.00       0    35.4  
 208   21:30   78.4    18    5.9   310      7.8   875.4    0.00       0    35.3  
 208   21:40   78.7    18    7.5   296      9.6   875.4    0.00       0    35.3  
 208   21:50   77.5    19    4.5   296      8.7   875.4    0.00       0    35.2  
 208   22:00   76.9    19    2.4   240      4.2   875.4    0.00       0    35.2  
 208   22:10   74.1    21    3.9   208      6.0   875.3    0.00       0    35.1  
 208   22:20   72.5    23    4.6   217      6.9   875.3    0.00       0    35.1  
 208   22:30   72.8    26    7.5   196     10.5   875.3    0.00       0    35.0  
 208   22:40   72.6    29   10.2   208     12.3   875.3    0.00       0    35.0  
 208   22:50   71.4    26    7.5   220     10.5   875.3    0.00       0    34.9  
 208   23:00   71.0    25    7.9   228     10.5   875.3    0.00       0    34.8  
 208   23:10   70.6    25    7.3   249      9.6   875.3    0.00       0    34.8  
 208   23:20   72.2    24    8.8   252     10.5   875.3    0.00       0    34.7  
 208   23:30   72.9    22    9.1   255     10.5   875.2    0.00       0    34.6  
 208   23:40   73.3    22    9.2   258     10.5   875.2    0.00       0    34.6  
 208   23:50   72.6    23    9.0   255     10.5   875.2    0.00       0    34.5  
 209    0:00   71.2    24    5.6   248      9.6   875.3    0.00       0    34.4  
 209    0:10   70.2    25    2.6   260      5.1   875.3    0.00       0    34.4  
 209    0:20   69.7    25    4.5   300      6.0   875.3    0.00       0    34.3  
 209    0:30   67.6    28    7.7   336      9.6   875.2    0.00       0    34.2  
 209    0:40   67.6    28    6.4   323      8.7   875.2    0.00       0    34.2  
 209    0:50   68.8    26    3.2   271      6.0   875.2    0.00       0    34.1  
 209    1:00   69.3    25    6.2   199      9.6   875.2    0.00       0    34.0  
 209    1:10   67.8    26    4.5   205      6.0   875.3    0.00       0    33.9  
 209    1:20   69.0    26    3.3   238      6.9   875.3    0.00       0    33.8  
 209    1:30   69.1    26    3.1   305      5.1   875.3    0.00       0    33.8  
 209    1:40   68.2    26    2.8   241      6.0   875.3    0.00       0    33.7  
 209    1:50   68.9    26    6.6   236     12.3   875.3    0.00       0    33.6  
 209    2:00   67.0    28    8.6   235     10.5   875.3    0.00       0    33.5  
 209    2:10   67.0    30    8.2   230     10.5   875.2    0.00       0    33.4  
 209    2:20   67.9    29    6.7   224     10.5   875.1    0.00       0    33.3  
 209    2:30   71.1    29    6.1   207      9.6   875.1    0.00       0    33.3  
 209    2:40   74.6    27    6.4   187      8.7   875.1    0.00       0    33.2  
 209    2:50   72.6    28    3.4   163      7.8   875.1    0.00       0    33.1  
 209    3:00   73.4    29    3.4   184      8.7   875.1    0.00       0    33.0  
 209    3:10   73.6    29    3.9   258      6.0   875.1    0.00       0    33.0  
 209    3:20   72.8    29    3.1   276      6.9   875.1    0.00       0    32.9  
 209    3:30   71.0    34    3.7    72      6.9   875.1    0.00       0    32.8  
 209    3:40   69.3    41    3.8   124      7.8   875.2    0.00       0    32.7  
 209    3:50   66.9    47    2.6    71      5.1   875.2    0.00       0    32.7  
 209    4:00   67.4    48    2.7   171      5.1   875.2    0.00       0    32.6  
 209    4:10   66.6    46    4.2   169      6.9   875.4    0.00       0    32.5  
 209    4:20   66.0    46    4.9   188      8.7   875.4    0.00       0    32.4  
 209    4:30   66.2    42    5.3   237      7.8   875.4    0.00       0    32.3  
 209    4:40   65.3    42    6.9   231     10.5   875.4    0.00       0    32.2  
 209    4:50   64.3    43    9.5   236     12.3   875.4    0.00       2    32.2  
 209    5:00   66.1    42    9.0   240     11.4   875.4    0.00       4    32.1  
 209    5:10   66.5    42    8.5   244     10.5   875.5    0.00      15    32.0  
 209    5:20   67.1    41    8.1   230     10.5   875.6    0.00      36    31.9  
 209    5:30   66.9    42    7.5   214      8.7   875.7    0.00      63    31.9  
 209    5:40   67.7    41    6.2   219      7.8   875.7    0.00      96    31.8  
 209    5:50   70.1    37    6.9   231      9.6   875.7    0.00     127    31.7  
 209    6:00   71.5    34    5.2   204      8.7   875.8    0.00     156    31.7  
 209    6:10   73.3    33    2.9   184      4.2   876.0    0.00     187    31.6  
 209    6:20   72.5    34    2.8     4      4.2   876.1    0.00     219    31.5  
 209    6:30   73.1    33    2.6   355      4.2   876.1    0.00     252    31.4  
 209    6:40   73.3    33    2.9    19      4.2   876.2    0.00     286    31.4  
 209    6:50   74.3    32    3.3    28      4.2   876.3    0.00     319    31.3  
 209    7:00   76.5    31    2.1    49      4.2   876.3    0.00     353    31.2  
 209    7:10   79.9    28    0.6    18      1.5   876.4    0.00     388    31.1  
 209    7:20   81.0    26    0.6   309      0.6   876.4    0.00     423    31.1  
 209    7:30   81.2    26    1.6     4      4.2   876.4    0.00     457    31.0  
 209    7:40   80.9    26    7.2   203     15.8   876.5    0.00     490    31.0  
 209    7:50   80.4    27    5.4   209     15.8   876.5    0.00     523    30.9  
 209    8:00   80.1    27    8.2   190     11.4   876.5    0.00     556    30.8  
 209    8:10   80.6    26    8.7   183     11.4   876.6    0.00     588    30.8  
 209    8:20   81.2    26    9.1   169     12.3   876.5    0.00     621    30.7  
 209    8:30   82.0    25    8.1   187     11.4   876.5    0.00     652    30.7  
 209    8:40   82.4    24    7.7   180     10.5   876.5    0.00     681    30.6  
 209    8:50   82.8    24    7.3   180     11.4   876.5    0.00     710    30.6  
 209    9:00   83.8    23    4.6   164      7.8   876.5    0.00     738    30.6  
 209    9:10   85.0    22    4.6   198      7.8   876.5    0.00     766    30.5  
 209    9:20   85.5    21    3.2   202      8.7   876.5    0.00     793    30.5  
 209    9:30   86.2    20    5.9   169     11.4   876.4    0.00     816    30.5  
 209    9:40   85.7    20    6.1   173     10.5   876.4    0.00     839    30.4  
 209    9:50   86.8    19    4.0   132      7.8   876.4    0.00     861    30.4  
 209   10:00   87.9    18    4.5   132      7.8   876.3    0.00     882    30.4  
 209   10:10   88.1    18    5.7   139      9.6   876.2    0.00     901    30.4  
 209   10:20   87.5    18    5.7   318      8.7   876.1    0.00     918    30.4  

Return to Garden Spring, Nevada graphs page.


Western Regional Climate Center,wrcc@dri.edu